createdAt,value
2022-12-04T00:01:48.168Z,19.47
2022-12-04T00:04:35.802Z,19.53
2022-12-04T00:07:22.388Z,19.73
2022-12-04T00:10:10.111Z,19.90
2022-12-04T00:13:02.150Z,20.50
2022-12-04T00:15:49.809Z,19.20
2022-12-04T00:18:37.275Z,20.23
2022-12-04T00:21:49.988Z,18.50
2022-12-04T00:24:38.185Z,18.53
2022-12-04T00:27:37.597Z,19.83
2022-12-04T00:30:28.980Z,19.77
2022-12-04T00:33:19.621Z,20.40
2022-12-04T00:36:10.197Z,19.37
2022-12-04T00:38:59.473Z,19.30
2022-12-04T00:41:51.500Z,19.63
2022-12-04T00:44:37.613Z,19.33
2022-12-04T00:47:27.219Z,19.90
2022-12-04T00:50:19.836Z,20.13
2022-12-04T00:53:06.299Z,19.07
2022-12-04T00:55:52.428Z,19.27
2022-12-04T00:58:38.785Z,20.00
2022-12-04T01:01:48.836Z,19.80
2022-12-04T01:04:38.711Z,20.27
2022-12-04T01:07:31.078Z,20.33
2022-12-04T01:10:45.508Z,20.50
2022-12-04T01:13:34.095Z,19.33
2022-12-04T01:16:27.807Z,22.07
2022-12-04T01:19:19.385Z,20.53
2022-12-04T01:22:12.128Z,20.70
2022-12-04T01:25:14.664Z,19.97
2022-12-04T01:28:04.755Z,20.57
2022-12-04T01:31:19.671Z,20.50
2022-12-04T01:35:01.248Z,20.10
2022-12-04T01:37:50.941Z,19.23
2022-12-04T01:40:44.645Z,20.50
2022-12-04T01:43:32.801Z,19.87
2022-12-04T01:46:28.488Z,20.10
2022-12-04T01:49:18.960Z,20.13
2022-12-04T01:52:13.967Z,19.30
2022-12-04T01:55:02.693Z,20.23
2022-12-04T01:57:49.311Z,18.30
2022-12-04T02:01:07.955Z,19.97
2022-12-04T02:04:01.664Z,19.83
2022-12-04T02:07:15.596Z,19.60
2022-12-04T02:10:27.201Z,19.07
2022-12-04T02:13:21.774Z,18.97
2022-12-04T02:16:14.438Z,18.80
2022-12-04T02:19:12.859Z,18.93
2022-12-04T02:22:15.685Z,18.67
2022-12-04T02:25:13.953Z,18.33
2022-12-04T02:28:10.593Z,18.93
2022-12-04T02:31:00.273Z,19.43
2022-12-04T02:33:56.734Z,19.13
2022-12-04T02:37:11.228Z,18.97
2022-12-04T02:40:04.044Z,19.00
2022-12-04T02:42:56.220Z,19.40
2022-12-04T02:45:47.749Z,18.37
2022-12-04T02:49:04.319Z,19.20
2022-12-04T02:52:00.145Z,17.93
2022-12-04T02:54:55.517Z,18.53
2022-12-04T02:58:03.377Z,18.30
2022-12-04T03:00:55.567Z,19.00
2022-12-04T03:03:42.510Z,17.77
2022-12-04T03:07:27.946Z,18.37
2022-12-04T03:10:20.306Z,18.07
2022-12-04T03:13:14.990Z,17.90
2022-12-04T03:16:13.150Z,18.37
2022-12-04T03:20:10.516Z,17.90
2022-12-04T03:23:04.625Z,19.17
2022-12-04T03:25:58.575Z,17.77
2022-12-04T03:28:53.734Z,18.80
2022-12-04T03:32:13.048Z,18.23
2022-12-04T03:35:06.227Z,18.47
2022-12-04T03:38:01.388Z,18.33
2022-12-04T03:40:57.913Z,17.33
2022-12-04T03:43:52.102Z,18.47
2022-12-04T03:46:46.310Z,18.47
2022-12-04T03:49:45.773Z,18.13
2022-12-04T03:52:42.528Z,17.17
2022-12-04T03:55:42.756Z,17.83
2022-12-04T03:58:34.249Z,17.30
2022-12-04T04:01:37.875Z,17.03
2022-12-04T04:04:29.185Z,16.67
2022-12-04T04:07:22.556Z,17.50
2022-12-04T04:10:58.904Z,18.03
2022-12-04T04:14:09.101Z,17.63
2022-12-04T04:17:17.881Z,16.33
2022-12-04T04:20:27.205Z,16.80
2022-12-04T04:23:37.613Z,16.17
2022-12-04T04:26:50.454Z,15.53
2022-12-04T04:29:38.634Z,15.70
2022-12-04T04:32:56.447Z,16.03
2022-12-04T04:35:54.257Z,16.83
2022-12-04T04:38:47.305Z,16.67
2022-12-04T04:41:41.708Z,15.83
2022-12-04T04:44:35.444Z,15.27
2022-12-04T04:47:46.464Z,15.50
2022-12-04T04:50:39.894Z,14.90
2022-12-04T04:53:48.823Z,15.17
2022-12-04T04:56:42.394Z,15.17
2022-12-04T04:59:35.513Z,14.97
2022-12-04T05:02:27.980Z,14.20
2022-12-04T05:10:18.165Z,14.87
2022-12-04T05:13:05.514Z,14.53
2022-12-04T05:15:58.130Z,15.03
2022-12-04T05:19:06.648Z,14.60
2022-12-04T05:21:34.548Z,14.03
2022-12-04T05:24:03.015Z,14.07
2022-12-04T05:26:32.384Z,13.73
2022-12-04T05:29:00.410Z,14.00
2022-12-04T05:31:28.814Z,13.93
2022-12-04T05:33:57.852Z,13.63
2022-12-04T05:36:25.813Z,13.57
2022-12-04T05:38:54.004Z,13.20
2022-12-04T05:41:21.936Z,14.00
2022-12-04T05:43:51.317Z,14.07
2022-12-04T05:46:19.203Z,13.77
2022-12-04T05:48:47.071Z,12.33
2022-12-04T05:51:15.068Z,13.80
2022-12-04T05:53:42.865Z,13.47
2022-12-04T05:56:11.819Z,14.00
2022-12-04T05:58:40.141Z,12.63
2022-12-04T06:01:14.343Z,13.43
2022-12-04T06:03:42.382Z,13.60
2022-12-04T06:06:20.741Z,14.03
2022-12-04T06:08:49.788Z,13.10
2022-12-04T06:11:20.274Z,13.83
2022-12-04T06:13:48.589Z,13.80
2022-12-04T06:16:19.894Z,12.97
2022-12-04T06:18:50.661Z,14.10
2022-12-04T06:21:19.097Z,13.97
2022-12-04T06:23:47.303Z,13.20
2022-12-04T06:26:15.584Z,13.13
2022-12-04T06:28:49.178Z,14.07
2022-12-04T06:31:19.648Z,13.87
2022-12-04T06:33:48.013Z,13.73
2022-12-04T06:36:18.537Z,12.90
2022-12-04T06:38:46.893Z,13.30
2022-12-04T06:45:40.078Z,12.67
2022-12-04T06:48:09.828Z,12.17
2022-12-04T06:50:38.179Z,12.43
2022-12-04T06:53:08.541Z,13.00
2022-12-04T06:55:36.977Z,12.53
2022-12-04T06:58:04.968Z,12.93
2022-12-04T07:00:33.012Z,12.50
2022-12-04T07:03:01.094Z,13.40
2022-12-04T07:05:30.887Z,13.53
2022-12-04T07:07:59.017Z,13.33
2022-12-04T07:10:27.246Z,12.80
2022-12-04T07:12:55.204Z,12.43
2022-12-04T07:15:23.301Z,13.17
2022-12-04T07:17:51.246Z,13.60
2022-12-04T07:20:19.281Z,12.80
2022-12-04T07:22:48.691Z,12.70
2022-12-04T07:25:16.881Z,13.20
2022-12-04T07:27:44.989Z,12.57
2022-12-04T07:30:15.883Z,13.40
2022-12-04T07:32:44.321Z,12.73
2022-12-04T07:35:12.399Z,13.00
2022-12-04T07:37:40.419Z,12.83
2022-12-04T07:40:10.767Z,12.20
2022-12-04T07:42:38.779Z,12.43
2022-12-04T07:45:08.041Z,11.93
2022-12-04T07:47:36.515Z,12.87
2022-12-04T07:50:04.739Z,12.43
2022-12-04T07:52:33.092Z,12.37
2022-12-04T07:55:01.419Z,11.73
2022-12-04T07:57:30.982Z,12.63
2022-12-04T07:59:59.116Z,11.83
2022-12-04T08:02:27.404Z,12.10
2022-12-04T08:04:55.666Z,11.73
2022-12-04T08:07:23.970Z,11.43
2022-12-04T08:09:51.972Z,11.97
2022-12-04T08:12:19.914Z,12.27
2022-12-04T08:14:50.482Z,11.80
2022-12-04T08:17:18.599Z,11.37
2022-12-04T08:19:46.803Z,11.20
2022-12-04T08:22:14.769Z,12.07
2022-12-04T08:24:43.605Z,11.20
2022-12-04T08:27:11.714Z,10.80
2022-12-04T08:29:39.641Z,11.43
2022-12-04T08:32:09.280Z,10.50
2022-12-04T08:34:37.297Z,10.33
2022-12-04T08:37:05.368Z,10.47
2022-12-04T08:39:33.273Z,10.70
2022-12-04T08:42:01.355Z,10.50
2022-12-04T08:44:29.363Z,10.07
2022-12-04T08:46:59.153Z,10.73
2022-12-04T08:49:28.619Z,11.30
2022-12-04T08:51:56.515Z,10.30
2022-12-04T08:54:24.408Z,14.97
2022-12-04T08:56:52.418Z,10.33
2022-12-04T08:59:20.376Z,10.93
2022-12-04T09:01:51.307Z,10.80
2022-12-04T09:04:19.927Z,10.93
2022-12-04T09:06:49.370Z,11.30
2022-12-04T09:09:17.334Z,11.37
2022-12-04T09:11:46.766Z,11.00
2022-12-04T09:14:14.855Z,11.50
2022-12-04T09:16:42.913Z,11.60
2022-12-04T09:19:10.861Z,11.07
2022-12-04T09:21:38.938Z,11.87
2022-12-04T09:24:08.580Z,11.87
2022-12-04T09:26:36.793Z,11.90
2022-12-04T09:29:06.071Z,11.57
2022-12-04T09:31:35.121Z,11.83
2022-12-04T09:34:03.931Z,12.03
2022-12-04T09:36:32.158Z,11.07
2022-12-04T09:39:00.281Z,12.47
2022-12-04T09:42:03.100Z,11.67
2022-12-04T09:44:35.095Z,11.60
2022-12-04T09:47:06.078Z,11.83
2022-12-04T09:49:39.865Z,12.10
2022-12-04T09:52:23.782Z,12.67
2022-12-04T09:54:53.986Z,12.40
2022-12-04T09:57:29.345Z,11.93
2022-12-04T09:59:57.940Z,12.30
2022-12-04T10:02:36.450Z,12.23
2022-12-04T10:05:05.506Z,12.43
2022-12-04T10:07:39.068Z,12.87
2022-12-04T10:10:14.452Z,13.07
2022-12-04T10:12:55.111Z,12.70
2022-12-04T10:15:31.375Z,13.40
2022-12-04T10:18:14.971Z,12.80
2022-12-04T10:20:58.449Z,12.83
2022-12-04T10:23:38.869Z,12.90
2022-12-04T10:26:14.769Z,14.27
2022-12-04T10:28:54.836Z,12.63
2022-12-04T10:31:24.491Z,12.30
2022-12-04T10:33:55.935Z,12.93
2022-12-04T10:36:30.975Z,13.03
2022-12-04T10:39:01.435Z,12.40
2022-12-04T10:41:36.210Z,13.47
2022-12-04T10:44:06.249Z,13.27
2022-12-04T10:46:35.895Z,12.73
2022-12-04T10:49:09.555Z,13.20
2022-12-04T10:51:41.785Z,13.27
2022-12-04T10:54:19.856Z,12.67
2022-12-04T10:56:56.120Z,13.30
2022-12-04T10:59:26.434Z,13.00
2022-12-04T11:02:06.931Z,13.17
2022-12-04T11:04:36.507Z,12.83
2022-12-04T11:07:06.866Z,13.23
2022-12-04T11:09:35.678Z,12.90
2022-12-04T11:12:09.061Z,12.13
2022-12-04T11:14:42.716Z,13.27
2022-12-04T11:17:18.010Z,13.33
2022-12-04T11:19:46.103Z,14.37
2022-12-04T11:22:16.254Z,13.83
2022-12-04T11:24:50.680Z,13.17
2022-12-04T11:27:25.098Z,14.17
2022-12-04T11:29:55.590Z,13.33
2022-12-04T11:32:27.215Z,14.73
2022-12-04T11:35:00.902Z,13.77
2022-12-04T11:37:34.600Z,14.17
2022-12-04T11:40:06.753Z,12.93
2022-12-04T11:42:34.894Z,14.93
2022-12-04T11:45:20.949Z,13.83
2022-12-04T11:47:55.858Z,14.03
2022-12-04T11:50:32.446Z,15.33
2022-12-04T11:53:11.742Z,15.57
2022-12-04T11:55:54.147Z,13.73
2022-12-04T11:58:39.526Z,15.27
2022-12-04T12:01:22.267Z,14.80
2022-12-04T12:04:07.221Z,15.60
2022-12-04T12:06:38.018Z,15.20
2022-12-04T12:09:23.575Z,15.07
2022-12-04T12:11:57.422Z,15.20
2022-12-04T12:14:33.934Z,14.97
2022-12-04T12:17:16.515Z,14.67
2022-12-04T12:20:06.580Z,13.77
2022-12-04T12:22:50.853Z,14.20
2022-12-04T12:25:22.538Z,15.20
2022-12-04T12:28:21.195Z,14.70
2022-12-04T12:31:06.760Z,14.73
2022-12-04T12:33:40.784Z,15.00
2022-12-04T12:36:12.713Z,13.57
2022-12-04T12:38:45.198Z,14.70
2022-12-04T12:41:16.584Z,15.37
2022-12-04T12:43:48.632Z,15.10
2022-12-04T12:46:22.911Z,14.07
2022-12-04T12:49:00.081Z,14.50
2022-12-04T12:51:35.095Z,14.23
2022-12-04T12:54:13.408Z,14.57
2022-12-04T12:56:49.796Z,14.03
2022-12-04T12:59:21.967Z,14.07
2022-12-04T13:02:00.684Z,14.50
2022-12-04T13:04:38.916Z,14.20
2022-12-04T13:07:29.027Z,14.13
2022-12-04T13:10:06.699Z,13.30
2022-12-04T13:12:39.731Z,14.50
2022-12-04T13:15:14.112Z,14.00
2022-12-04T13:17:43.690Z,14.47
2022-12-04T13:20:21.459Z,15.40
2022-12-04T13:23:04.893Z,14.40
2022-12-04T13:25:46.679Z,13.97
2022-12-04T13:28:26.301Z,13.83
2022-12-04T13:31:02.228Z,14.40
2022-12-04T13:33:52.716Z,14.70
2022-12-04T13:36:47.204Z,14.57
2022-12-04T13:39:34.847Z,15.10
2022-12-04T13:42:05.623Z,13.57
2022-12-04T13:44:36.534Z,14.93
2022-12-04T13:47:06.992Z,15.10
2022-12-04T13:49:48.620Z,14.70
2022-12-04T13:52:25.650Z,14.00
2022-12-04T13:54:59.091Z,14.83
2022-12-04T13:57:28.289Z,13.93
2022-12-04T14:00:08.413Z,13.70
2022-12-04T14:02:59.076Z,14.53
2022-12-04T14:05:30.731Z,13.33
2022-12-04T14:08:07.599Z,14.30
2022-12-04T14:10:39.612Z,12.83
2022-12-04T14:13:19.109Z,13.87
2022-12-04T14:15:47.361Z,13.93
2022-12-04T14:18:29.811Z,14.07
2022-12-04T14:21:04.601Z,13.97
2022-12-04T14:23:39.571Z,13.70
2022-12-04T14:26:21.125Z,12.73
2022-12-04T14:28:53.510Z,12.20
2022-12-04T14:31:27.598Z,12.00
2022-12-04T14:33:59.401Z,12.77
2022-12-04T14:36:31.600Z,13.03
2022-12-04T14:39:06.469Z,12.90
2022-12-04T14:41:34.557Z,12.17
2022-12-04T14:44:03.059Z,13.40
2022-12-04T14:46:42.794Z,13.03
2022-12-04T14:49:31.908Z,12.40
2022-12-04T14:52:07.031Z,12.90
2022-12-04T14:54:43.864Z,11.27
2022-12-04T14:57:33.896Z,12.43
2022-12-04T15:00:02.567Z,11.83
2022-12-04T15:02:35.869Z,12.40
2022-12-04T15:05:04.542Z,13.27
2022-12-04T15:07:34.077Z,12.30
2022-12-04T15:10:37.161Z,12.27
2022-12-04T15:13:05.223Z,12.00
2022-12-04T15:15:33.280Z,11.07
2022-12-04T15:18:04.249Z,11.27
2022-12-04T15:20:39.285Z,11.47
2022-12-04T15:23:07.669Z,11.60
2022-12-04T15:25:46.077Z,11.40
2022-12-04T15:28:19.478Z,11.67
2022-12-04T15:30:49.987Z,11.03
2022-12-04T15:33:21.858Z,12.07
2022-12-04T15:35:55.196Z,11.73
2022-12-04T15:38:23.557Z,11.77
2022-12-04T15:40:55.194Z,11.67
2022-12-04T15:43:31.647Z,11.87
2022-12-04T15:46:00.168Z,12.17
2022-12-04T15:48:32.103Z,11.87
2022-12-04T15:51:03.450Z,12.20
2022-12-04T15:53:33.855Z,12.73
2022-12-04T15:56:06.869Z,12.30
2022-12-04T15:58:37.522Z,13.17
2022-12-04T16:01:07.587Z,13.43
2022-12-04T16:03:45.304Z,14.33
2022-12-04T16:06:19.615Z,13.53
2022-12-04T16:08:53.164Z,13.50
2022-12-04T16:11:31.513Z,13.27
2022-12-04T16:14:20.483Z,13.80
2022-12-04T16:16:51.348Z,14.10
2022-12-04T16:19:28.967Z,13.40
2022-12-04T16:21:57.137Z,13.57
2022-12-04T16:24:25.381Z,13.43
2022-12-04T16:26:56.301Z,14.27
2022-12-04T16:29:24.616Z,14.80
2022-12-04T16:31:54.299Z,14.30
2022-12-04T16:34:24.183Z,15.20
2022-12-04T16:36:51.985Z,15.00
2022-12-04T16:39:19.955Z,13.90
2022-12-04T16:41:47.911Z,15.27
2022-12-04T16:44:18.115Z,15.00
2022-12-04T16:46:46.242Z,14.97
2022-12-04T16:49:14.487Z,14.47
2022-12-04T16:51:46.943Z,17.43
2022-12-04T16:54:15.004Z,19.40
2022-12-04T16:56:43.402Z,20.33
2022-12-04T16:59:12.453Z,20.63
2022-12-04T17:01:46.070Z,21.27
2022-12-04T17:04:14.137Z,22.23
2022-12-04T17:06:42.431Z,22.47
2022-12-04T17:09:10.787Z,21.43
2022-12-04T17:11:39.293Z,20.73
2022-12-04T17:14:08.105Z,20.93
2022-12-04T17:16:36.734Z,20.63
2022-12-04T17:19:06.480Z,19.30
2022-12-04T17:21:34.439Z,18.67
2022-12-04T17:24:03.080Z,18.80
2022-12-04T17:26:31.032Z,19.07
2022-12-04T17:28:59.026Z,17.73
2022-12-04T17:31:36.561Z,18.97
2022-12-04T17:34:06.553Z,17.63
2022-12-04T17:36:34.484Z,17.90
2022-12-04T17:39:02.925Z,17.03
2022-12-04T17:41:30.874Z,16.57
2022-12-04T17:44:00.828Z,16.70
2022-12-04T17:46:29.093Z,17.07
2022-12-04T17:49:01.466Z,17.30
2022-12-04T17:51:36.937Z,16.60
2022-12-04T17:54:08.574Z,17.83
2022-12-04T17:56:36.528Z,18.30
2022-12-04T17:59:04.719Z,18.57
2022-12-04T18:01:32.836Z,19.40
2022-12-04T18:04:03.243Z,19.07
2022-12-04T18:06:34.397Z,19.47
2022-12-04T18:09:02.839Z,20.63
2022-12-04T18:11:32.887Z,21.80
2022-12-04T18:14:08.589Z,21.73
2022-12-04T18:16:41.949Z,20.83
2022-12-04T18:19:10.071Z,21.07
2022-12-04T18:21:40.047Z,20.20
2022-12-04T18:24:08.669Z,21.83
2022-12-04T18:26:38.988Z,22.73
2022-12-04T18:29:07.346Z,21.57
2022-12-04T18:31:35.763Z,20.77
2022-12-04T18:34:06.628Z,20.43
2022-12-04T18:36:36.427Z,21.93
2022-12-04T18:39:08.836Z,19.93
2022-12-04T18:41:36.904Z,21.43
2022-12-04T18:44:05.258Z,22.37
2022-12-04T18:46:33.501Z,22.37
2022-12-04T18:49:01.884Z,20.67
2022-12-04T18:51:32.104Z,23.27
2022-12-04T18:54:02.915Z,23.83
2022-12-04T18:56:35.000Z,23.20
2022-12-04T18:59:05.137Z,24.60
2022-12-04T19:01:33.279Z,24.77
2022-12-04T19:04:03.649Z,23.70
2022-12-04T19:06:32.939Z,24.10
2022-12-04T19:09:02.268Z,24.70
2022-12-04T19:11:30.203Z,24.73
2022-12-04T19:14:01.040Z,25.43
2022-12-04T19:16:29.918Z,26.00
2022-12-04T19:18:58.414Z,24.27
2022-12-04T19:21:27.333Z,25.67
2022-12-04T19:23:59.089Z,24.27
2022-12-04T19:26:27.418Z,25.47
2022-12-04T19:28:56.270Z,24.73
2022-12-04T19:31:27.622Z,24.67
2022-12-04T19:33:57.806Z,24.93
2022-12-04T19:36:27.129Z,25.87
2022-12-04T19:38:55.339Z,25.00
2022-12-04T19:41:25.680Z,24.33
2022-12-04T19:43:58.605Z,25.00
2022-12-04T19:46:30.603Z,24.43
2022-12-04T19:49:02.219Z,23.97
2022-12-04T19:51:33.217Z,24.60
2022-12-04T19:54:02.510Z,24.17
2022-12-04T19:56:32.328Z,25.27
2022-12-04T19:59:02.403Z,23.70
2022-12-04T20:01:32.384Z,24.33
2022-12-04T20:04:02.542Z,23.50
2022-12-04T20:06:31.908Z,25.23
2022-12-04T20:09:02.524Z,24.30
2022-12-04T20:11:31.465Z,24.13
2022-12-04T20:14:02.101Z,23.90
2022-12-04T20:16:34.319Z,25.23
2022-12-04T20:19:03.693Z,25.10
2022-12-04T20:21:32.524Z,23.83
2022-12-04T20:24:03.965Z,25.00
2022-12-04T20:26:34.959Z,24.90
2022-12-04T20:29:03.221Z,25.03
2022-12-04T20:31:35.615Z,24.93
2022-12-04T20:34:05.692Z,24.43
2022-12-04T20:36:37.771Z,23.63
2022-12-04T20:39:07.153Z,24.57
2022-12-04T20:41:35.279Z,24.27
2022-12-04T20:44:05.486Z,23.50
2022-12-04T20:46:36.186Z,23.10
2022-12-04T20:49:06.890Z,23.60
2022-12-04T20:51:37.357Z,25.00
2022-12-04T20:54:06.128Z,23.67
2022-12-04T20:56:36.131Z,23.67
2022-12-04T20:59:06.177Z,24.10
2022-12-04T21:01:36.585Z,23.40
2022-12-04T21:04:05.554Z,23.13
2022-12-04T21:06:35.913Z,22.47
2022-12-04T21:09:06.025Z,23.63
2022-12-04T21:11:38.116Z,24.73
2022-12-04T21:14:25.288Z,22.80
2022-12-04T21:16:54.588Z,23.13
2022-12-04T21:19:23.797Z,23.20
2022-12-04T21:21:52.312Z,23.73
2022-12-04T21:24:21.823Z,23.17
2022-12-04T21:26:49.752Z,22.97
2022-12-04T21:29:17.657Z,22.67
2022-12-04T21:31:45.691Z,23.13
2022-12-04T21:34:17.536Z,22.27
2022-12-04T21:36:46.252Z,23.17
2022-12-04T21:39:14.343Z,21.97
2022-12-04T21:42:00.140Z,22.17
2022-12-04T21:44:28.313Z,21.77
2022-12-04T21:46:56.338Z,22.13
2022-12-04T21:49:25.706Z,21.67
2022-12-04T21:51:58.383Z,21.43
2022-12-04T21:54:27.042Z,22.27
2022-12-04T21:56:55.259Z,20.73
2022-12-04T21:59:23.381Z,21.33
2022-12-04T22:01:51.373Z,22.47
2022-12-04T22:04:19.404Z,20.87
2022-12-04T22:06:48.764Z,21.70
2022-12-04T22:09:17.196Z,21.20
2022-12-04T22:11:45.557Z,21.77
2022-12-04T22:14:13.907Z,21.93
2022-12-04T22:16:43.290Z,21.87
2022-12-04T22:19:12.742Z,22.57
2022-12-04T22:21:41.172Z,22.23
2022-12-04T22:24:11.478Z,23.10
2022-12-04T22:26:39.914Z,21.77
2022-12-04T22:29:41.531Z,23.93
2022-12-04T22:31:56.311Z,23.00
2022-12-04T22:34:24.180Z,23.07
2022-12-04T22:36:52.052Z,22.63
2022-12-04T22:39:21.236Z,22.47
2022-12-04T22:41:49.283Z,23.40
2022-12-04T22:44:17.296Z,22.43
2022-12-04T22:46:45.306Z,21.40
2022-12-04T22:49:13.333Z,22.27
2022-12-04T22:51:41.178Z,22.27
2022-12-04T22:54:14.055Z,23.13
2022-12-04T22:56:44.224Z,22.50
2022-12-04T22:59:12.193Z,22.07
2022-12-04T23:01:39.980Z,21.23
2022-12-04T23:04:08.420Z,22.23
2022-12-04T23:06:36.458Z,21.23
2022-12-04T23:09:07.822Z,22.20
2022-12-04T23:11:36.777Z,21.77
2022-12-04T23:14:08.931Z,21.97
2022-12-04T23:16:38.982Z,21.93
2022-12-04T23:19:08.470Z,23.43
2022-12-04T23:21:36.696Z,21.53
2022-12-04T23:24:05.070Z,20.73
2022-12-04T23:26:34.588Z,22.70
2022-12-04T23:29:03.207Z,23.00
2022-12-04T23:31:33.862Z,21.70
2022-12-04T23:34:02.651Z,22.90
2022-12-04T23:36:30.742Z,22.30
2022-12-04T23:38:58.660Z,22.83
2022-12-04T23:41:28.716Z,23.43
2022-12-04T23:43:57.228Z,22.73
2022-12-04T23:46:29.119Z,22.77
2022-12-04T23:48:59.420Z,22.60
2022-12-04T23:51:28.235Z,23.07
2022-12-04T23:53:56.398Z,22.67
2022-12-04T23:56:25.946Z,21.70
2022-12-04T23:58:55.534Z,22.20
